Time;durP1;ratioP1;P1;durP2;ratioP2;P2;SDS_P1;SDS_P2;PMS_P1;PMS_P2;Temp;Humidity;BMP_temperature;BMP_pressure;BME280_temperature;BME280_humidity;BME280_pressure;Samples;Min_cycle;Max_cycle;Signal;HPM_P1;HPM_P2
2021/01/31 00:02:10;;;;;;;49.10;19.38;;;;;;;-3.80;95.36;100474.69;5040347;28;20051;-63
2021/01/31 00:04:36;;;;;;;53.88;19.65;;;;;;;-3.88;95.07;100474.97;5040485;28;20045;-63
2021/01/31 00:07:02;;;;;;;46.90;19.55;;;;;;;-3.93;95.14;100480.38;5039576;28;20454;-63
2021/01/31 00:09:28;;;;;;;46.28;20.77;;;;;;;-4.02;95.02;100478.03;5039467;28;20056;-64
2021/01/31 00:11:54;;;;;;;45.33;20.25;;;;;;;-4.00;95.42;100486.75;5041729;28;20045;-63
2021/01/31 00:14:21;;;;;;;45.22;19.48;;;;;;;-4.05;95.18;100484.28;5039060;28;20433;-63
2021/01/31 00:16:47;;;;;;;48.13;19.90;;;;;;;-4.03;95.25;100478.09;5039642;28;20512;-62
2021/01/31 00:19:13;;;;;;;47.13;21.08;;;;;;;-4.06;95.28;100487.81;5015212;28;20049;-63
2021/01/31 00:21:39;;;;;;;54.10;20.77;;;;;;;-4.05;95.35;100488.66;5040434;28;20057;-62
2021/01/31 00:24:05;;;;;;;53.78;21.88;;;;;;;-4.05;95.22;100480.78;5038930;28;20465;-63
2021/01/31 00:26:31;;;;;;;43.72;19.90;;;;;;;-4.07;95.55;100488.72;5040201;28;20553;-61
2021/01/31 00:28:57;;;;;;;47.38;19.70;;;;;;;-4.13;95.43;100488.94;5037782;28;20048;-63
2021/01/31 00:31:24;;;;;;;52.47;20.60;;;;;;;-4.14;95.42;100496.88;5040141;28;20056;-63
2021/01/31 00:33:50;;;;;;;50.05;20.48;;;;;;;-4.11;95.39;100502.91;5040203;28;20052;-62
2021/01/31 00:36:16;;;;;;;47.03;20.13;;;;;;;-4.16;95.58;100503.97;5039838;28;20049;-62
2021/01/31 00:38:42;;;;;;;51.30;20.02;;;;;;;-4.17;95.46;100510.97;5039870;28;20045;-63
2021/01/31 00:41:08;;;;;;;48.08;20.33;;;;;;;-4.18;95.61;100506.66;5040170;28;20501;-62
2021/01/31 00:43:34;;;;;;;48.95;20.60;;;;;;;-4.18;95.56;100517.16;5041381;28;20490;-63
2021/01/31 00:46:00;;;;;;;47.30;19.95;;;;;;;-4.20;95.59;100512.84;5039928;28;20057;-63
2021/01/31 00:48:27;;;;;;;51.47;21.13;;;;;;;-4.24;95.59;100512.97;5038913;28;20047;-63
2021/01/31 00:50:53;;;;;;;52.70;21.83;;;;;;;-4.31;95.65;100511.44;5040543;28;20049;-63
2021/01/31 00:53:19;;;;;;;49.08;19.35;;;;;;;-4.33;95.78;100510.59;5040202;28;20049;-62
2021/01/31 00:55:45;;;;;;;51.80;21.08;;;;;;;-4.31;95.70;100508.81;5040809;28;20391;-63
2021/01/31 00:58:11;;;;;;;51.17;19.73;;;;;;;-4.28;95.75;100510.50;5039195;28;20130;-63
2021/01/31 01:00:39;;;;;;;46.25;19.17;;;;;;;-4.33;95.84;100521.13;5038743;28;20474;-63
2021/01/31 01:03:07;;;;;;;51.97;19.60;;;;;;;-4.41;95.94;100512.66;5040298;28;20054;-62
2021/01/31 01:05:34;;;;;;;55.20;19.45;;;;;;;-4.37;95.91;100522.16;5032610;28;20068;-63
2021/01/31 01:08:00;;;;;;;50.10;20.63;;;;;;;-4.38;96.25;100515.16;5039571;28;20068;-63
2021/01/31 01:10:29;;;;;;;53.45;20.52;;;;;;;-4.40;96.04;100517.00;5037665;28;20055;-63
2021/01/31 01:12:55;;;;;;;51.25;19.98;;;;;;;-4.40;96.16;100519.63;5040146;28;20053;-62
2021/01/31 01:15:24;;;;;;;49.92;20.30;;;;;;;-4.42;96.21;100519.69;5040214;28;20415;-63
2021/01/31 01:17:50;;;;;;;51.00;20.52;;;;;;;-4.35;96.19;100524.72;5032185;28;20124;-63
2021/01/31 01:20:16;;;;;;;54.13;20.70;;;;;;;-4.36;96.22;100530.88;5035087;28;20071;-63
2021/01/31 01:22:43;;;;;;;49.10;19.08;;;;;;;-4.41;96.09;100531.03;5034566;28;20406;-63
2021/01/31 01:25:12;;;;;;;48.00;19.23;;;;;;;-4.49;96.26;100533.91;5039199;28;20080;-63
2021/01/31 01:27:39;;;;;;;52.10;19.85;;;;;;;-4.39;96.58;100531.84;5040039;28;20052;-63
2021/01/31 01:30:07;;;;;;;51.30;20.13;;;;;;;-4.47;96.42;100531.25;5038105;28;20045;-63
2021/01/31 01:32:33;;;;;;;52.03;20.80;;;;;;;-4.51;96.29;100538.34;5039916;28;20048;-63
2021/01/31 01:34:59;;;;;;;53.33;20.83;;;;;;;-4.50;96.31;100539.22;5039282;28;20504;-63
2021/01/31 01:37:25;;;;;;;58.20;22.42;;;;;;;-4.54;96.49;100548.09;5039704;28;20099;-62
2021/01/31 01:39:52;;;;;;;50.33;20.23;;;;;;;-4.54;96.41;100545.47;5038942;28;20128;-63
2021/01/31 01:42:18;;;;;;;53.92;20.73;;;;;;;-4.52;96.71;100551.53;5038252;28;20053;-63
2021/01/31 01:44:44;;;;;;;54.33;21.50;;;;;;;-4.53;96.56;100534.91;5039379;28;20526;-63
2021/01/31 01:47:17;;;;;;;53.97;21.48;;;;;;;-4.52;96.53;100527.88;5039387;28;20052;-63
2021/01/31 01:49:45;;;;;;;51.92;20.08;;;;;;;-4.59;96.54;100530.72;5039454;28;20130;-63
2021/01/31 01:52:20;;;;;;;52.30;20.13;;;;;;;-4.57;96.58;100526.25;5037899;28;20057;-63
2021/01/31 01:54:52;;;;;;;52.05;21.10;;;;;;;-4.62;96.37;100533.44;5039360;28;20400;-63
2021/01/31 01:57:23;;;;;;;57.63;20.10;;;;;;;-4.62;96.64;100532.59;5037911;28;20072;-62
2021/01/31 01:59:51;;;;;;;52.83;20.90;;;;;;;-4.63;96.51;100525.59;5036302;28;20418;-63
2021/01/31 02:02:20;;;;;;;56.13;20.52;;;;;;;-4.65;96.42;100533.53;5037813;28;20437;-63
2021/01/31 02:04:46;;;;;;;53.70;18.95;;;;;;;-4.68;96.56;100530.13;5038470;28;20053;-63
2021/01/31 02:07:12;;;;;;;48.92;18.08;;;;;;;-4.65;96.47;100528.28;5038549;28;20392;-63
2021/01/31 02:09:39;;;;;;;50.83;21.67;;;;;;;-4.73;96.48;100516.28;5036977;28;20098;-63
2021/01/31 02:12:07;;;;;;;53.95;19.95;;;;;;;-4.72;96.50;100521.50;5035501;28;20475;-63
2021/01/31 02:14:36;;;;;;;53.13;19.05;;;;;;;-4.71;96.44;100517.97;5038231;28;20043;-63
2021/01/31 02:17:07;;;;;;;50.58;20.60;;;;;;;-4.69;96.54;100513.50;5038951;28;20053;-63
2021/01/31 02:20:10;;;;;;;53.88;20.67;;;;;;;-4.81;96.49;100511.28;5038066;28;20144;-63
2021/01/31 02:22:54;;;;;;;51.22;19.48;;;;;;;-4.80;96.58;100510.34;5037679;28;20042;-63
2021/01/31 02:25:42;;;;;;;58.05;21.45;;;;;;;-4.84;96.49;100512.22;5037996;28;20063;-62
2021/01/31 02:28:32;;;;;;;61.05;22.20;;;;;;;-4.90;96.66;100514.16;5036862;28;20044;-63
2021/01/31 02:31:27;;;;;;;58.83;22.08;;;;;;;-4.94;96.65;100522.13;5039296;28;20056;-63
2021/01/31 02:33:57;;;;;;;57.33;20.70;;;;;;;-4.95;96.96;100504.69;5058359;28;20401;-63
2021/01/31 02:36:28;;;;;;;;;;;;;;;-4.98;97.02;100504.75;5057839;28;20114;-63
2021/01/31 02:39:02;;;;;;;56.33;21.77;;;;;;;-4.93;96.83;100507.28;5056755;28;19921;-63
2021/01/31 02:41:33;;;;;;;53.55;21.02;;;;;;;-4.94;97.03;100506.38;5057450;28;20051;-63
2021/01/31 02:44:04;;;;;;;52.00;20.63;;;;;;;-4.99;96.69;100502.19;5057931;28;20060;-63
2021/01/31 02:46:33;;;;;;;56.08;19.50;;;;;;;-5.01;96.76;100493.50;5058468;28;20048;-63
2021/01/31 02:49:03;;;;;;;;;;;;;;;-4.93;96.87;100497.63;5056913;28;20056;-63
2021/01/31 02:54:05;;;;;;;54.90;20.95;;;;;;;-5.01;96.99;100501.38;5045422;22;20057;-63
2021/01/31 02:56:36;;;;;;;56.03;22.85;;;;;;;-5.03;96.66;100503.19;5041662;28;20048;-63
2021/01/31 02:59:08;;;;;;;47.47;20.10;;;;;;;-5.05;96.75;100503.25;5053602;28;20048;-63
2021/01/31 03:01:39;;;;;;;55.08;21.52;;;;;;;-5.11;96.55;100509.53;5055834;28;20068;-62
2021/01/31 03:04:11;;;;;;;57.97;21.35;;;;;;;-5.10;96.89;100505.13;5053005;28;20064;-62
2021/01/31 03:06:42;;;;;;;53.72;21.70;;;;;;;-5.14;96.82;100500.88;5057168;28;20132;-63
2021/01/31 03:09:13;;;;;;;54.38;21.48;;;;;;;-5.12;97.09;100509.56;5055918;28;20548;-63
2021/01/31 03:11:45;;;;;;;60.47;20.98;;;;;;;-5.16;96.89;100515.81;5060127;28;20159;-63
2021/01/31 03:14:16;;;;;;;55.30;20.88;;;;;;;-5.17;97.01;100514.09;5060926;28;20061;-62
2021/01/31 03:16:45;;;;;;;54.78;20.92;;;;;;;-5.17;96.99;100508.84;5061010;28;20409;-61
2021/01/31 03:19:16;;;;;;;57.20;21.85;;;;;;;-5.19;96.98;100515.91;5041402;28;20113;-63
2021/01/31 03:21:47;;;;;;;54.22;20.63;;;;;;;-5.23;97.20;100514.28;5061369;28;20461;-63
2021/01/31 03:24:21;;;;;;;57.25;21.42;;;;;;;-5.23;97.31;100514.28;5060114;28;20048;-63
2021/01/31 03:26:52;;;;;;;58.78;21.88;;;;;;;-5.25;97.17;100510.84;5061541;28;20045;-63
2021/01/31 03:32:26;;;;;;;60.13;21.73;;;;;;;-5.23;97.35;100498.53;5060128;28;20049;-62
2021/01/31 03:34:57;;;;;;;58.80;22.30;;;;;;;-5.29;97.11;100504.81;5063279;28;20106;-62
2021/01/31 03:37:26;;;;;;;53.38;19.20;;;;;;;-5.24;97.26;100508.19;5062493;28;20493;-62
2021/01/31 03:39:54;;;;;;;59.80;21.55;;;;;;;-5.25;97.17;100516.09;5063673;28;20049;-62
2021/01/31 03:42:20;;;;;;;51.88;19.17;;;;;;;-5.33;97.17;100514.53;5062940;28;20053;-62
2021/01/31 03:44:46;;;;;;;54.35;20.88;;;;;;;-5.39;97.15;100504.19;5062639;28;20124;-63
2021/01/31 03:47:21;;;;;;;55.45;20.55;;;;;;;-5.36;97.14;100514.63;5062249;28;20049;-63
2021/01/31 03:49:53;;;;;;;49.72;19.08;;;;;;;-5.33;97.16;100513.66;5062310;28;20090;-63
2021/01/31 03:52:20;;;;;;;49.22;19.60;;;;;;;-5.39;97.23;100509.44;5062504;28;20451;-63
2021/01/31 03:54:47;;;;;;;55.17;20.83;;;;;;;-5.34;97.14;100510.19;5063382;28;20551;-63
2021/01/31 03:57:18;;;;;;;54.33;19.23;;;;;;;-5.36;97.00;100509.38;5062482;28;20052;-63
2021/01/31 03:59:49;;;;;;;47.78;19.67;;;;;;;-5.38;97.24;100515.56;5063084;28;20044;-63
2021/01/31 04:02:17;;;;;;;62.22;22.30;;;;;;;-5.48;97.28;100518.47;5061993;28;20110;-62
2021/01/31 04:04:47;;;;;;;60.75;21.92;;;;;;;-5.45;97.39;100512.25;5063236;28;20467;-62
2021/01/31 04:07:19;;;;;;;57.85;21.45;;;;;;;-5.42;97.12;100524.41;5061625;28;20064;-63
2021/01/31 04:09:46;;;;;;;52.42;20.70;;;;;;;-5.42;97.32;100520.03;5062209;28;20052;-63
2021/01/31 04:12:17;;;;;;;55.70;19.65;;;;;;;-5.45;97.20;100520.13;5062056;28;20053;-63
2021/01/31 04:14:50;;;;;;;54.15;20.92;;;;;;;-5.48;97.40;100525.44;5062753;28;20098;-63
2021/01/31 04:17:16;;;;;;;60.45;22.02;;;;;;;-5.49;97.25;100523.72;5061358;28;20413;-62
2021/01/31 04:19:42;;;;;;;48.45;19.50;;;;;;;-5.52;97.44;100529.06;5053325;28;20539;-63
2021/01/31 04:22:08;;;;;;;62.13;21.13;;;;;;;-5.50;97.48;100522.88;5061350;28;20051;-62
2021/01/31 04:24:34;;;;;;;57.00;22.08;;;;;;;-5.46;97.48;100527.13;5062378;28;20477;-63
2021/01/31 04:27:01;;;;;;;57.60;20.95;;;;;;;-5.41;97.32;100516.50;5068637;28;20048;-63
2021/01/31 04:29:27;;;;;;;61.67;22.30;;;;;;;-5.48;97.56;100523.72;5069146;22;20048;-62
2021/01/31 04:31:53;;;;;;;58.22;21.88;;;;;;;-5.48;97.55;100525.44;5101934;28;20044;-63
2021/01/31 04:34:19;;;;;;;63.67;22.77;;;;;;;-5.48;97.87;100528.06;5101357;28;20066;-63
2021/01/31 04:36:46;;;;;;;57.20;21.55;;;;;;;-5.45;98.06;100525.34;5100065;28;20069;-63
2021/01/31 04:39:12;;;;;;;67.47;22.58;;;;;;;-5.49;97.95;100529.84;5098667;28;20057;-62
2021/01/31 04:41:42;;;;;;;64.90;21.77;;;;;;;-5.53;97.50;100538.69;5101669;28;20047;-62
2021/01/31 04:44:13;;;;;;;61.28;22.45;;;;;;;-5.47;97.81;100525.41;5101151;28;20404;-62
2021/01/31 04:46:43;;;;;;;64.82;24.02;;;;;;;-5.45;97.78;100525.34;5101731;28;20591;-62
2021/01/31 04:49:21;;;;;;;65.18;23.75;;;;;;;-5.41;98.08;100524.38;5100047;28;20092;-62
2021/01/31 04:52:09;;;;;;;70.00;22.35;;;;;;;-5.40;97.97;100520.88;5100725;28;20078;-62
2021/01/31 04:54:47;;;;;;;58.08;22.20;;;;;;;-5.43;97.96;100517.44;5100515;28;20097;-62
2021/01/31 04:57:14;;;;;;;59.83;23.30;;;;;;;-5.47;97.99;100516.69;5100749;28;20060;-62
2021/01/31 04:59:47;;;;;;;64.15;23.08;;;;;;;-5.46;98.03;100519.25;5101598;28;20052;-62
2021/01/31 05:02:18;;;;;;;70.97;24.73;;;;;;;-5.43;98.12;100517.44;5099820;28;20518;-63
2021/01/31 05:04:51;;;;;;;60.25;23.02;;;;;;;-5.38;98.29;100516.41;5100822;28;20055;-63
2021/01/31 05:07:20;;;;;;;75.50;24.67;;;;;;;-5.44;97.87;100505.25;5100313;28;20562;-62
2021/01/31 05:09:45;;;;;;;69.47;25.65;;;;;;;-5.36;98.08;100514.63;5100722;28;20135;-62
2021/01/31 05:12:17;;;;;;;69.35;25.55;;;;;;;-5.37;98.10;100507.66;5099833;28;20039;-63
2021/01/31 05:15:19;;;;;;;74.80;23.65;;;;;;;-5.33;97.94;100505.78;5100622;28;20056;-62
2021/01/31 05:17:47;;;;;;;79.25;25.80;;;;;;;-5.26;98.00;100509.13;5037229;28;20046;-62
2021/01/31 05:20:15;;;;;;;76.30;27.05;;;;;;;-5.25;98.00;100508.22;5080438;28;20047;-62
2021/01/31 05:22:45;;;;;;;66.40;25.10;;;;;;;-5.24;97.85;100509.91;5099795;28;20070;-63
2021/01/31 05:25:13;;;;;;;;;;;;;;;-5.22;97.92;100514.22;5100638;28;20047;-63
2021/01/31 05:27:40;;;;;;;66.85;23.27;;;;;;;-5.28;98.00;100510.00;5100841;28;20273;-62
2021/01/31 05:30:07;;;;;;;86.75;27.10;;;;;;;-5.29;98.04;100521.41;5097990;28;20113;-62
2021/01/31 05:33:03;;;;;;;84.15;29.80;;;;;;;-5.31;97.95;100532.84;5100056;28;20078;-62
2021/01/31 05:35:30;;;;;;;82.85;27.23;;;;;;;-5.26;97.99;100532.72;5099941;28;20047;-63
2021/01/31 05:37:56;;;;;;;83.68;29.88;;;;;;;-5.19;98.04;100542.16;5100758;28;20052;-63
2021/01/31 05:40:30;;;;;;;88.05;28.75;;;;;;;-5.17;98.09;100535.94;5098923;28;20057;-62
2021/01/31 05:42:57;;;;;;;91.20;32.75;;;;;;;-5.17;97.85;100540.31;5100920;28;20047;-62
2021/01/31 05:45:33;;;;;;;86.63;28.27;;;;;;;-5.10;97.86;100526.97;5099156;28;20047;-62
2021/01/31 05:48:02;;;;;;;75.82;27.90;;;;;;;-5.15;97.87;100528.88;5100246;28;20052;-64
2021/01/31 05:50:33;;;;;;;;;;;;;;;-5.12;97.75;100522.69;5097623;28;20053;-62
2021/01/31 05:53:21;;;;;;;75.97;25.65;;;;;;;-5.23;97.77;100520.38;5099695;28;19949;-63
2021/01/31 05:55:47;;;;;;;75.57;27.25;;;;;;;-5.23;98.31;100520.38;5098896;28;20051;-63
2021/01/31 05:58:14;;;;;;;77.40;28.13;;;;;;;-5.25;97.99;100539.69;5098041;28;20059;-62
2021/01/31 06:00:40;;;;;;;78.70;26.90;;;;;;;-5.25;97.98;100545.78;5099024;28;20051;-62
2021/01/31 06:03:09;;;;;;;84.45;25.70;;;;;;;-5.19;97.86;100536.91;5098051;28;20476;-62
2021/01/31 06:05:36;;;;;;;77.80;25.43;;;;;;;-5.35;97.91;100542.56;5099551;28;20051;-62
2021/01/31 06:08:06;;;;;;;81.20;25.25;;;;;;;-5.26;98.00;100549.31;5097490;28;20048;-62
2021/01/31 06:10:35;;;;;;;72.93;24.75;;;;;;;-5.29;98.00;100539.75;5097882;28;20048;-63
2021/01/31 06:13:09;;;;;;;79.32;25.15;;;;;;;-5.18;97.95;100522.84;5099296;28;20416;-62
2021/01/31 06:15:43;;;;;;;79.50;24.90;;;;;;;-5.31;97.94;100528.47;5096892;28;20051;-62
2021/01/31 06:18:17;;;;;;;74.30;24.95;;;;;;;-5.28;97.91;100538.88;5098923;28;20044;-63
2021/01/31 06:20:45;;;;;;;79.88;25.83;;;;;;;-5.31;98.00;100528.47;5096720;28;20104;-62
2021/01/31 06:23:34;;;;;;;79.15;26.45;;;;;;;-5.30;97.99;100526.69;5098414;28;20055;-62
2021/01/31 06:26:00;;;;;;;75.60;25.75;;;;;;;-5.25;98.04;100537.06;5094239;28;20047;-63
2021/01/31 06:28:33;;;;;;;77.13;24.25;;;;;;;-5.22;97.94;100537.00;5097812;28;20052;-63
2021/01/31 06:31:08;;;;;;;77.07;25.02;;;;;;;-5.23;97.94;100536.09;5096905;28;20035;-63
2021/01/31 06:33:36;;;;;;;75.78;24.55;;;;;;;-5.18;97.59;100535.97;5098430;28;20043;-62
2021/01/31 06:36:14;;;;;;;69.32;24.25;;;;;;;-5.29;97.89;100526.63;5098172;28;20105;-62
2021/01/31 06:38:52;;;;;;;78.32;25.45;;;;;;;-5.34;97.61;100520.69;5097282;28;20089;-63
2021/01/31 06:41:42;;;;;;;74.07;25.23;;;;;;;-5.29;97.50;100520.53;5098005;28;20048;-62
2021/01/31 06:44:18;;;;;;;66.05;23.98;;;;;;;-5.46;97.19;100523.66;5098608;28;20077;-62
2021/01/31 06:46:52;;;;;;;67.43;23.55;;;;;;;-5.41;97.35;100526.16;5098885;28;20493;-62
2021/01/31 06:49:33;;;;;;;67.13;23.00;;;;;;;-5.49;97.34;100518.47;5095669;28;20039;-62
2021/01/31 06:52:19;;;;;;;65.93;23.45;;;;;;;-5.53;97.26;100522.97;5098821;28;20048;-62
2021/01/31 06:55:02;;;;;;;64.60;23.67;;;;;;;-5.56;97.07;100520.41;5098533;28;20067;-63
2021/01/31 06:57:53;;;;;;;56.78;21.70;;;;;;;-5.66;96.94;100526.81;5098868;28;20058;-62
2021/01/31 07:00:37;;;;;;;65.70;21.20;;;;;;;-5.65;97.16;100513.66;5097803;28;20055;-62
2021/01/31 07:03:34;;;;;;;71.10;23.45;;;;;;;-5.70;97.12;100525.16;5097364;28;20446;-62
2021/01/31 07:06:20;;;;;;;65.93;22.75;;;;;;;-5.76;96.68;100512.25;5098097;28;20047;-62
2021/01/31 07:11:53;;;;;;;64.88;24.45;;;;;;;-5.84;96.71;100510.69;5074327;22;20134;-63
2021/01/31 07:14:48;;;;;;;59.40;24.08;;;;;;;-5.89;96.50;100517.81;5044608;28;20061;-62
2021/01/31 07:17:23;;;;;;;63.17;22.50;;;;;;;-5.92;97.11;100519.63;5040905;28;20143;-62
2021/01/31 07:19:55;;;;;;;65.20;24.17;;;;;;;-6.05;96.83;100519.13;5037874;28;20490;-62
2021/01/31 07:22:27;;;;;;;63.40;24.33;;;;;;;-6.01;96.95;100524.28;5045358;28;20045;-62
2021/01/31 07:24:59;;;;;;;61.40;23.63;;;;;;;-6.01;96.89;100524.28;5046424;28;20127;-62
2021/01/31 07:27:33;;;;;;;62.67;23.70;;;;;;;-5.96;97.17;100533.72;5044344;28;20049;-63
2021/01/31 07:30:09;;;;;;;62.97;23.67;;;;;;;-6.00;96.87;100533.81;5042167;28;20053;-62
2021/01/31 07:32:49;;;;;;;61.10;23.55;;;;;;;-5.98;96.83;100539.03;5042530;28;20373;-63
2021/01/31 07:35:20;;;;;;;59.60;21.60;;;;;;;-5.91;96.35;100543.19;5043984;28;20053;-62
2021/01/31 07:37:52;;;;;;;51.72;20.80;;;;;;;-5.91;96.38;100543.19;5045926;28;20061;-62
2021/01/31 07:40:20;;;;;;;59.00;21.63;;;;;;;-5.93;96.41;100542.38;5042263;28;20499;-62
2021/01/31 07:42:52;;;;;;;52.40;21.02;;;;;;;-5.95;96.50;100549.41;5043430;28;20049;-62
2021/01/31 07:45:20;;;;;;;60.30;23.25;;;;;;;-5.90;96.15;100549.28;5043313;28;20057;-62
2021/01/31 07:47:47;;;;;;;57.60;22.45;;;;;;;-5.92;96.30;100540.59;5045906;28;20053;-62
2021/01/31 07:50:37;;;;;;;56.83;20.27;;;;;;;-5.98;96.02;100552.13;5042969;28;20059;-62
2021/01/31 07:53:04;;;;;;;61.20;22.38;;;;;;;-5.98;96.15;100546.88;5044026;28;20068;-62
2021/01/31 07:55:39;;;;;;;56.08;21.10;;;;;;;-5.86;95.99;100549.19;5044551;28;20056;-62
2021/01/31 07:58:29;;;;;;;54.53;22.02;;;;;;;-5.89;95.84;100549.25;5045481;28;20072;-62
2021/01/31 08:00:56;;;;;;;54.20;21.90;;;;;;;-5.83;95.59;100546.47;5044742;28;20540;-63
2021/01/31 08:03:31;;;;;;;56.97;21.42;;;;;;;-5.72;95.68;100553.19;5047091;28;20057;-62
2021/01/31 08:06:07;;;;;;;52.90;21.67;;;;;;;-5.73;95.75;100554.09;5050822;28;20049;-62
2021/01/31 08:08:44;;;;;;;52.67;21.10;;;;;;;-5.71;95.68;100555.78;5043110;28;20108;-62
2021/01/31 08:11:53;;;;;;;54.65;23.02;;;;;;;-5.70;96.01;100557.47;5045993;28;20048;-62
2021/01/31 08:14:56;;;;;;;50.33;20.17;;;;;;;-5.57;95.38;100567.66;5047593;28;20084;-63
2021/01/31 08:18:07;;;;;;;53.47;22.33;;;;;;;-5.54;95.79;100578.91;5045943;28;20524;-63
2021/01/31 08:20:44;;;;;;;60.35;21.77;;;;;;;-5.52;95.80;100589.38;5036549;28;20072;-63
2021/01/31 08:23:44;;;;;;;56.47;23.83;;;;;;;-5.44;95.57;100587.41;5044618;28;20376;-63
2021/01/31 08:26:43;;;;;;;64.18;22.70;;;;;;;-5.26;95.54;100595.69;5046377;28;20139;-63
2021/01/31 08:29:26;;;;;;;49.90;20.40;;;;;;;-5.21;95.55;100583.28;5045012;28;20071;-63
2021/01/31 08:32:16;;;;;;;50.92;20.25;;;;;;;-5.08;95.37;100576.78;5043901;28;20146;-63
2021/01/31 08:35:16;;;;;;;50.22;20.52;;;;;;;-5.11;95.25;100571.63;5045985;28;20075;-63
2021/01/31 08:37:42;;;;;;;54.67;21.42;;;;;;;-5.07;95.30;100557.53;5047393;28;20044;-63
2021/01/31 08:40:23;;;;;;;50.30;21.85;;;;;;;-5.01;95.27;100559.97;5045141;28;20121;-63
2021/01/31 08:42:55;;;;;;;52.38;22.60;;;;;;;-4.90;95.24;100548.28;5048196;28;20061;-63
2021/01/31 08:45:22;;;;;;;50.70;21.00;;;;;;;-4.85;95.17;100541.16;5046596;28;20418;-63
2021/01/31 08:47:48;;;;;;;52.03;22.08;;;;;;;-4.80;95.06;100533.97;5047020;28;20045;-63
2021/01/31 08:50:18;;;;;;;52.67;21.98;;;;;;;-4.75;95.01;100522.44;5047318;28;20060;-63
2021/01/31 08:52:46;;;;;;;49.45;20.92;;;;;;;-4.69;95.09;100526.66;5046648;28;20982;-63
2021/01/31 08:55:12;;;;;;;49.80;20.58;;;;;;;-4.61;94.72;100519.41;5047829;28;20175;-63
2021/01/31 08:57:39;;;;;;;48.60;20.80;;;;;;;-4.63;94.67;100518.56;5046329;28;20108;-64
2021/01/31 09:00:09;;;;;;;50.78;22.58;;;;;;;-4.67;94.80;100516.94;5045291;28;20052;-64
2021/01/31 09:02:35;;;;;;;46.13;20.17;;;;;;;-4.63;94.59;100510.69;5043770;28;20053;-63
2021/01/31 09:05:11;;;;;;;49.42;20.38;;;;;;;-4.60;94.81;100509.75;5048444;28;20053;-62
2021/01/31 09:07:40;;;;;;;47.67;21.45;;;;;;;-4.62;94.65;100515.06;5033438;28;20049;-63
2021/01/31 09:10:12;;;;;;;49.42;21.73;;;;;;;-4.60;94.64;100505.34;5025927;28;20049;-63
2021/01/31 09:12:39;;;;;;;49.90;20.85;;;;;;;-4.63;94.83;100502.81;5040534;28;20046;-63
2021/01/31 09:15:13;;;;;;;55.88;21.58;;;;;;;-4.61;94.80;100501.03;5046788;28;20414;-63
2021/01/31 09:17:39;;;;;;;49.05;20.15;;;;;;;-4.63;94.89;100505.44;5045224;28;20139;-63
2021/01/31 09:20:11;;;;;;;46.03;18.90;;;;;;;-4.72;94.94;100503.13;5044340;28;20398;-63
2021/01/31 09:22:40;;;;;;;52.10;20.95;;;;;;;-4.64;94.92;100498.50;5042615;28;20057;-63
2021/01/31 09:25:08;;;;;;;52.25;21.13;;;;;;;-4.63;94.99;100497.56;5024910;28;20069;-63
2021/01/31 09:27:39;;;;;;;54.60;19.95;;;;;;;-4.58;95.16;100500.91;5027285;28;20049;-63
2021/01/31 09:30:10;;;;;;;52.30;20.85;;;;;;;-4.54;95.01;100495.56;5043830;28;20049;-63
2021/01/31 09:32:40;;;;;;;48.45;21.45;;;;;;;-4.44;94.85;100510.13;5047789;28;20049;-63
2021/01/31 09:35:08;;;;;;;45.50;20.80;;;;;;;-4.30;94.82;100505.28;5045329;28;20053;-63
2021/01/31 09:37:35;;;;;;;47.60;22.70;;;;;;;-4.22;94.74;100503.25;5043700;28;20044;-64
2021/01/31 09:40:03;;;;;;;50.10;21.05;;;;;;;-4.15;94.52;100498.66;5045409;28;20295;-63
2021/01/31 09:42:31;;;;;;;48.03;20.38;;;;;;;-4.04;94.42;100498.28;5067353;28;20398;-63
2021/01/31 09:45:00;;;;;;;49.17;21.27;;;;;;;-3.97;94.49;100489.28;5066896;28;20049;-63
2021/01/31 09:47:27;;;;;;;50.70;22.27;;;;;;;-3.92;94.28;100497.00;5065547;28;20059;-63
2021/01/31 09:49:57;;;;;;;43.15;18.75;;;;;;;-3.87;94.10;100501.19;5037535;28;20570;-62
2021/01/31 09:52:24;;;;;;;45.47;19.17;;;;;;;-3.83;94.32;100496.69;5060428;28;20054;-63
2021/01/31 09:54:50;;;;;;;43.42;19.38;;;;;;;-3.83;94.18;100496.69;5037569;28;20056;-64
2021/01/31 09:57:20;;;;;;;41.00;18.70;;;;;;;-3.63;94.53;100489.88;5064294;28;20080;-63
2021/01/31 09:59:47;;;;;;;47.70;19.13;;;;;;;-3.56;93.85;100488.75;5067188;28;20123;-62
2021/01/31 10:02:18;;;;;;;42.40;18.88;;;;;;;-3.48;93.89;100485.81;5032709;28;20067;-62
2021/01/31 10:04:53;;;;;;;38.60;18.17;;;;;;;-3.42;93.92;100475.06;4982164;28;20052;-62
2021/01/31 10:07:30;;;;;;;40.88;17.88;;;;;;;-3.28;93.57;100472.78;4963638;28;20061;-63
2021/01/31 10:09:56;;;;;;;38.50;17.58;;;;;;;-3.27;93.22;100474.50;4966066;28;20061;-62
2021/01/31 10:12:26;;;;;;;38.67;17.50;;;;;;;-3.08;93.56;100476.44;4964944;28;20049;-62
2021/01/31 10:14:55;;;;;;;40.30;18.58;;;;;;;-3.00;93.39;100471.75;4952574;28;21843;-63
2021/01/31 10:17:34;;;;;;;37.63;17.42;;;;;;;-2.85;93.24;100465.88;4951959;28;20053;-63
2021/01/31 10:20:28;;;;;;;34.78;16.63;;;;;;;-2.82;93.25;100480.69;4951987;28;20076;-63
2021/01/31 10:22:55;;;;;;;32.60;15.82;;;;;;;-2.68;92.62;100482.78;4951410;28;20152;-63
2021/01/31 10:25:22;;;;;;;35.75;16.88;;;;;;;-2.75;92.72;100481.31;4951999;28;20147;-63
2021/01/31 10:27:49;;;;;;;31.83;15.77;;;;;;;-2.78;92.75;100481.41;4949812;28;20214;-63
2021/01/31 10:30:24;;;;;;;28.67;14.57;;;;;;;-2.68;92.54;100485.41;4951848;28;20156;-62
2021/01/31 10:32:50;;;;;;;34.10;17.20;;;;;;;-2.76;93.03;100474.34;4950019;28;20529;-63
2021/01/31 10:35:27;;;;;;;35.70;16.75;;;;;;;-2.65;93.44;100472.13;4949853;28;20698;-62
2021/01/31 10:37:54;;;;;;;32.95;16.63;;;;;;;-2.50;92.93;100466.25;4948965;28;20530;-62
2021/01/31 10:40:21;;;;;;;29.92;15.65;;;;;;;-2.44;92.69;100464.25;4949456;28;20049;-63
2021/01/31 10:42:47;;;;;;;30.88;15.30;;;;;;;-2.37;92.54;100460.44;4945133;28;20144;-63
2021/01/31 10:45:17;;;;;;;29.70;14.68;;;;;;;-2.17;92.87;100457.84;4942475;28;20079;-63
2021/01/31 10:47:44;;;;;;;28.85;14.80;;;;;;;-2.12;92.08;100455.88;4950054;28;20045;-62
2021/01/31 10:50:12;;;;;;;29.98;14.63;;;;;;;-1.98;92.16;100457.91;4943862;28;25268;-62
2021/01/31 10:52:38;;;;;;;24.30;12.57;;;;;;;-1.95;91.34;100454.28;4943161;28;20649;-63
2021/01/31 10:55:06;;;;;;;26.10;13.40;;;;;;;-1.98;90.88;100444.72;4942050;28;20286;-62
2021/01/31 10:57:32;;;;;;;26.08;12.95;;;;;;;-1.79;90.62;100442.16;4942827;28;20052;-63
2021/01/31 10:59:58;;;;;;;25.25;12.75;;;;;;;-1.73;90.20;100442.81;4941983;28;21127;-63
2021/01/31 11:02:24;;;;;;;26.52;13.32;;;;;;;-1.62;89.25;100440.53;4959700;28;20045;-64
2021/01/31 11:04:50;;;;;;;26.98;14.13;;;;;;;-1.67;89.21;100438.09;5042750;28;20446;-64
2021/01/31 11:07:16;;;;;;;22.95;12.27;;;;;;;-1.69;88.62;100436.44;5033993;28;20065;-64
2021/01/31 11:09:42;;;;;;;23.13;11.88;;;;;;;-1.59;88.59;100430.72;4948765;28;20217;-62
2021/01/31 11:12:09;;;;;;;24.55;12.50;;;;;;;-1.54;87.62;100417.31;4936297;28;20049;-63
2021/01/31 11:14:35;;;;;;;23.60;12.20;;;;;;;-1.52;87.72;100409.31;4939160;28;20380;-63
2021/01/31 11:17:01;;;;;;;22.27;11.50;;;;;;;-1.25;87.93;100399.28;4940236;28;20045;-63
2021/01/31 11:19:27;;;;;;;25.13;13.90;;;;;;;-1.10;87.82;100398.53;4942897;28;20231;-63
2021/01/31 11:21:53;;;;;;;22.83;12.57;;;;;;;-0.85;86.97;100391.22;4945677;28;21409;-63
2021/01/31 11:24:19;;;;;;;24.08;11.95;;;;;;;-0.91;86.65;100387.94;4948913;28;20119;-62
2021/01/31 11:26:46;;;;;;;26.85;13.25;;;;;;;-0.90;85.90;100375.59;4943604;28;20410;-62
2021/01/31 11:29:13;;;;;;;24.33;12.63;;;;;;;-0.79;86.11;100370.63;4936100;28;20091;-63
2021/01/31 11:31:39;;;;;;;20.88;11.70;;;;;;;-0.51;86.27;100363.13;4942091;28;20075;-63
2021/01/31 11:34:05;;;;;;;20.17;11.00;;;;;;;-0.46;85.81;100361.94;4953126;28;20049;-63
2021/01/31 11:36:31;;;;;;;21.55;11.52;;;;;;;-0.54;85.41;100350.91;4946981;28;20068;-63
2021/01/31 11:38:59;;;;;;;21.27;11.32;;;;;;;-0.59;84.52;100351.16;4945459;28;20053;-63